createdAt,value
2024-04-15T00:00:56.564Z,6.25
2024-04-15T00:02:00.759Z,7.50
2024-04-15T00:03:02.345Z,6.00
2024-04-15T00:04:04.082Z,6.00
2024-04-15T00:05:05.838Z,6.00
2024-04-15T00:06:10.150Z,6.25
2024-04-15T00:07:11.751Z,6.25
2024-04-15T00:08:13.326Z,6.00
2024-04-15T00:09:17.489Z,6.75
2024-04-15T00:10:21.670Z,7.00
2024-04-15T00:11:23.401Z,5.50
2024-04-15T00:12:25.010Z,6.50
2024-04-15T00:13:26.553Z,7.00
2024-04-15T00:14:30.715Z,6.00
2024-04-15T00:15:32.975Z,8.25
2024-04-15T00:16:34.735Z,6.00
2024-04-15T00:17:36.362Z,8.00
2024-04-15T00:18:40.547Z,6.00
2024-04-15T00:19:42.143Z,6.75
2024-04-15T00:20:43.702Z,6.00
2024-04-15T00:21:45.474Z,7.00
2024-04-15T00:22:49.641Z,7.00
2024-04-15T00:23:51.212Z,6.00
2024-04-15T00:24:55.479Z,9.00
2024-04-15T00:25:57.082Z,7.50
2024-04-15T00:27:01.240Z,8.25
2024-04-15T00:28:02.873Z,7.00
2024-04-15T00:29:04.477Z,8.50
2024-04-15T00:30:06.995Z,9.00
2024-04-15T00:31:08.575Z,7.75
2024-04-15T00:32:12.750Z,10.00
2024-04-15T00:33:14.491Z,9.50
2024-04-15T00:34:16.111Z,9.50
2024-04-15T00:35:20.823Z,9.00
2024-04-15T00:36:22.681Z,10.75
2024-04-15T00:37:24.279Z,10.00
2024-04-15T00:38:25.834Z,9.00
2024-04-15T00:39:29.983Z,9.75
2024-04-15T00:40:34.128Z,8.50
2024-04-15T00:41:35.701Z,6.00
2024-04-15T00:42:37.253Z,8.00
2024-04-15T00:43:41.393Z,7.00
2024-04-15T00:44:43.620Z,6.50
2024-04-15T00:45:45.261Z,5.50
2024-04-15T00:46:46.922Z,7.00
2024-04-15T00:47:51.189Z,6.00
2024-04-15T00:48:52.903Z,6.00
2024-04-15T00:49:54.519Z,6.00
2024-04-15T00:50:56.053Z,6.50
2024-04-15T00:52:00.248Z,6.00
2024-04-15T00:53:03.136Z,5.50
2024-04-15T00:54:04.785Z,6.00
2024-04-15T00:55:09.277Z,6.00
2024-04-15T00:56:13.570Z,6.00
2024-04-15T00:57:15.146Z,6.00
2024-04-15T00:58:16.747Z,6.00
2024-04-15T00:59:20.886Z,5.00
2024-04-15T01:00:22.467Z,7.50
2024-04-15T01:01:24.137Z,5.00
2024-04-15T01:02:28.388Z,6.00
2024-04-15T01:03:30.087Z,6.00
2024-04-15T01:04:31.713Z,5.50
2024-04-15T01:05:33.305Z,5.75
2024-04-15T01:06:37.465Z,5.75
2024-04-15T01:07:39.016Z,6.00
2024-04-15T01:08:40.753Z,6.00
2024-04-15T01:09:44.933Z,5.00
2024-04-15T01:10:55.484Z,6.00
2024-04-15T01:12:04.674Z,6.00
2024-04-15T01:13:06.336Z,5.00
2024-04-15T01:14:10.527Z,4.50
2024-04-15T01:15:12.137Z,5.75
2024-04-15T01:16:13.828Z,6.00
2024-04-15T01:17:15.531Z,5.00
2024-04-15T01:18:19.839Z,5.00
2024-04-15T01:19:21.499Z,5.25
2024-04-15T01:20:23.079Z,5.00
2024-04-15T01:21:27.262Z,5.50
2024-04-15T01:22:30.717Z,5.25
2024-04-15T01:23:32.410Z,6.00
2024-04-15T01:24:36.658Z,5.00
2024-04-15T01:25:41.041Z,5.00
2024-04-15T01:26:46.043Z,5.25
2024-04-15T01:27:47.620Z,6.00
2024-04-15T01:28:51.816Z,5.00
2024-04-15T01:29:53.365Z,5.50
2024-04-15T01:30:55.016Z,5.00
2024-04-15T01:31:56.606Z,5.75
2024-04-15T01:33:01.805Z,5.25
2024-04-15T01:34:03.438Z,6.00
2024-04-15T01:35:05.241Z,7.00
2024-04-15T01:36:09.566Z,5.00
2024-04-15T01:37:11.161Z,5.75
2024-04-15T01:38:12.780Z,5.50
2024-04-15T01:39:16.933Z,6.00
2024-04-15T01:40:21.226Z,6.00
2024-04-15T01:41:23.305Z,8.00
2024-04-15T01:42:24.847Z,6.00
2024-04-15T01:43:28.991Z,6.00
2024-04-15T01:44:30.588Z,8.00
2024-04-15T01:45:33.202Z,6.00
2024-04-15T01:46:37.367Z,5.75
2024-04-15T01:47:39.052Z,8.00
2024-04-15T01:48:40.731Z,6.00
2024-04-15T01:49:42.298Z,6.00
2024-04-15T01:50:46.460Z,6.00
2024-04-15T01:51:48.055Z,8.00
2024-04-15T01:52:49.649Z,6.50
2024-04-15T01:53:53.835Z,6.00
2024-04-15T01:54:55.492Z,8.75
2024-04-15T01:55:59.676Z,7.50
2024-04-15T01:57:01.407Z,8.00
2024-04-15T01:58:05.646Z,8.00
2024-04-15T01:59:07.342Z,5.25
2024-04-15T02:00:09.431Z,5.25
2024-04-15T02:01:11.086Z,6.00
2024-04-15T02:02:15.263Z,6.00
2024-04-15T02:03:16.951Z,5.25
2024-04-15T02:04:18.602Z,5.25
2024-04-15T02:05:20.177Z,5.25
2024-04-15T02:06:24.333Z,6.00
2024-04-15T02:07:26.315Z,6.00
2024-04-15T02:08:27.874Z,5.50
2024-04-15T02:09:29.448Z,5.75
2024-04-15T02:10:33.656Z,6.25
2024-04-15T02:11:37.909Z,5.00
2024-04-15T02:12:39.538Z,5.00
2024-04-15T02:13:41.095Z,6.25
2024-04-15T02:14:45.274Z,6.00
2024-04-15T02:15:46.834Z,6.00
2024-04-15T02:16:48.421Z,6.25
2024-04-15T02:17:50.594Z,6.00
2024-04-15T02:18:54.910Z,5.75
2024-04-15T02:19:56.476Z,6.75
2024-04-15T02:20:58.086Z,7.00
2024-04-15T02:21:59.730Z,6.50
2024-04-15T02:23:03.941Z,6.75
2024-04-15T02:24:05.751Z,5.50
2024-04-15T02:25:07.537Z,6.50
2024-04-15T02:26:09.194Z,6.75
2024-04-15T02:27:15.958Z,6.75
2024-04-15T02:28:17.553Z,7.25
2024-04-15T02:29:19.202Z,5.00
2024-04-15T02:30:20.793Z,7.00
2024-04-15T02:31:24.933Z,7.00
2024-04-15T02:32:26.538Z,8.00
2024-04-15T02:33:28.111Z,5.00
2024-04-15T02:34:29.672Z,6.75
2024-04-15T02:35:33.809Z,8.25
2024-04-15T02:36:35.366Z,6.75
2024-04-15T02:37:36.986Z,7.25
2024-04-15T02:38:41.142Z,6.75
2024-04-15T02:39:42.841Z,8.00
2024-04-15T02:40:44.423Z,6.75
2024-04-15T02:41:46.089Z,9.00
2024-04-15T02:42:52.951Z,8.25
2024-04-15T02:43:54.510Z,8.00
2024-04-15T02:44:56.129Z,7.25
2024-04-15T02:46:00.294Z,8.50
2024-04-15T02:47:01.912Z,7.75
2024-04-15T02:48:03.770Z,8.00
2024-04-15T02:49:05.414Z,8.75
2024-04-15T02:50:07.218Z,8.00
2024-04-15T02:51:11.367Z,6.75
2024-04-15T02:52:12.990Z,8.75
2024-04-15T02:53:14.585Z,6.75
2024-04-15T02:54:16.168Z,8.00
2024-04-15T02:55:23.935Z,7.50
2024-04-15T02:56:25.975Z,7.25
2024-04-15T02:57:27.592Z,8.50
2024-04-15T02:58:31.745Z,7.50
2024-04-15T02:59:36.027Z,8.00
2024-04-15T03:00:37.604Z,8.00
2024-04-15T03:01:39.224Z,9.50
2024-04-15T03:02:40.863Z,9.00
2024-04-15T03:03:45.128Z,8.00
2024-04-15T03:04:46.877Z,8.00
2024-04-15T03:05:48.501Z,8.50
2024-04-15T03:06:52.298Z,6.50
2024-04-15T03:07:56.602Z,10.25
2024-04-15T03:08:58.153Z,9.00
2024-04-15T03:09:59.758Z,8.50
2024-04-15T03:11:08.528Z,8.00
2024-04-15T03:12:13.720Z,8.75
2024-04-15T03:13:15.319Z,9.00
2024-04-15T03:14:19.543Z,9.00
2024-04-15T03:15:21.197Z,8.50
2024-04-15T03:16:27.870Z,8.00
2024-04-15T03:17:30.128Z,9.00
2024-04-15T03:18:31.732Z,9.50
2024-04-15T03:19:35.886Z,11.00
2024-04-15T03:20:37.446Z,9.00
2024-04-15T03:21:38.985Z,8.25
2024-04-15T03:22:40.557Z,8.00
2024-04-15T03:23:44.729Z,9.00
2024-04-15T03:24:47.626Z,9.00
2024-04-15T03:25:49.193Z,9.00
2024-04-15T03:26:53.336Z,11.00
2024-04-15T03:27:54.910Z,9.50
2024-04-15T03:28:56.509Z,9.50
2024-04-15T03:30:00.693Z,10.75
2024-04-15T03:31:02.278Z,13.00
2024-04-15T03:32:06.701Z,11.50
2024-04-15T03:33:08.332Z,12.50
2024-04-15T03:34:09.953Z,11.75
2024-04-15T03:35:12.757Z,12.00
2024-04-15T03:36:17.020Z,11.00
2024-04-15T03:37:21.267Z,10.50
2024-04-15T03:38:22.842Z,11.50
2024-04-15T03:39:26.988Z,11.00
2024-04-15T03:40:28.588Z,12.25
2024-04-15T03:41:30.235Z,11.00
2024-04-15T03:42:34.474Z,14.00
2024-04-15T03:43:36.055Z,11.00
2024-04-15T03:44:39.274Z,13.25
2024-04-15T03:45:45.397Z,13.25
2024-04-15T03:46:50.548Z,13.75
2024-04-15T03:47:52.182Z,14.25
2024-04-15T03:48:54.234Z,13.00
2024-04-15T03:49:55.806Z,13.00
2024-04-15T03:50:59.994Z,13.00
2024-04-15T03:52:01.752Z,13.25
2024-04-15T03:53:03.424Z,13.00
2024-04-15T03:54:05.048Z,12.00
2024-04-15T03:55:09.214Z,13.25
2024-04-15T03:56:10.780Z,13.50
2024-04-15T03:57:12.359Z,14.50
2024-04-15T03:58:17.696Z,14.00
2024-04-15T03:59:21.960Z,15.25
2024-04-15T04:00:23.523Z,14.25
2024-04-15T04:01:27.822Z,11.50
2024-04-15T04:02:29.455Z,13.25
2024-04-15T04:03:33.611Z,16.00
2024-04-15T04:04:35.323Z,14.00
2024-04-15T04:05:36.893Z,13.75
2024-04-15T04:06:38.442Z,13.75
2024-04-15T04:07:42.610Z,13.25
2024-04-15T04:08:44.184Z,13.25
2024-04-15T04:09:45.981Z,13.00
2024-04-15T04:10:50.964Z,15.25
2024-04-15T04:11:52.602Z,13.50
2024-04-15T04:12:54.217Z,16.00
2024-04-15T04:13:55.817Z,13.50
2024-04-15T04:14:59.933Z,13.75
2024-04-15T04:16:01.543Z,15.25
2024-04-15T04:17:05.744Z,16.75
2024-04-15T04:18:07.472Z,13.50
2024-04-15T04:19:11.676Z,16.00
2024-04-15T04:20:13.271Z,14.00
2024-04-15T04:21:14.824Z,16.00
2024-04-15T04:22:19.042Z,14.00
2024-04-15T04:23:20.655Z,17.00
2024-04-15T04:24:22.278Z,15.75
2024-04-15T04:25:24.846Z,13.50
2024-04-15T04:26:29.016Z,13.50
2024-04-15T04:27:30.573Z,16.00
2024-04-15T04:28:32.110Z,16.50
2024-04-15T04:29:33.820Z,16.75
2024-04-15T04:30:38.192Z,15.50
2024-04-15T04:31:39.779Z,17.75
2024-04-15T04:32:44.208Z,15.50
2024-04-15T04:33:45.895Z,15.75
2024-04-15T04:34:50.147Z,16.50
2024-04-15T04:35:51.781Z,17.50
2024-04-15T04:36:53.341Z,16.00
2024-04-15T04:37:55.068Z,14.75
2024-04-15T04:38:59.198Z,19.25
2024-04-15T04:40:00.811Z,20.75
2024-04-15T04:41:02.444Z,18.00
2024-04-15T04:42:06.673Z,17.25
2024-04-15T04:43:08.516Z,16.00
2024-04-15T04:44:10.080Z,17.00
2024-04-15T04:45:11.634Z,20.50
2024-04-15T04:46:16.075Z,19.50
2024-04-15T04:47:20.654Z,18.00
2024-04-15T04:48:24.880Z,18.25
2024-04-15T04:49:26.502Z,19.00
2024-04-15T04:50:30.690Z,21.25
2024-04-15T04:51:32.729Z,21.25
2024-04-15T04:52:34.357Z,19.75
2024-04-15T04:53:38.523Z,20.50
2024-04-15T04:54:40.091Z,17.75
2024-04-15T04:55:41.649Z,18.00
2024-04-15T04:56:43.362Z,21.50
2024-04-15T04:57:47.553Z,19.50
2024-04-15T04:58:49.335Z,17.25
2024-04-15T04:59:53.253Z,20.50
2024-04-15T05:00:57.440Z,21.75
2024-04-15T05:01:59.170Z,18.75
2024-04-15T05:03:01.040Z,18.75
2024-04-15T05:04:09.769Z,21.00
2024-04-15T05:05:11.373Z,22.50
2024-04-15T05:06:13.389Z,18.00
2024-04-15T05:07:15.010Z,22.75
2024-04-15T05:08:19.193Z,20.00
2024-04-15T05:09:20.782Z,20.50
2024-04-15T05:10:22.438Z,21.00
2024-04-15T05:11:24.102Z,19.25
2024-04-15T05:12:28.324Z,21.00
2024-04-15T05:13:29.895Z,19.75
2024-04-15T05:14:31.470Z,21.00
2024-04-15T05:15:33.042Z,19.00
2024-04-15T05:16:37.213Z,20.50
2024-04-15T05:17:38.872Z,20.75
2024-04-15T05:18:41.053Z,21.50
2024-04-15T05:19:47.906Z,20.50
2024-04-15T05:20:50.594Z,21.00
2024-04-15T05:21:52.190Z,18.25
2024-04-15T05:22:53.750Z,20.75
2024-04-15T05:23:57.938Z,19.75
2024-04-15T05:24:59.571Z,19.50
2024-04-15T05:26:01.529Z,19.75
2024-04-15T05:27:05.737Z,18.25
2024-04-15T05:28:07.350Z,19.00
2024-04-15T05:29:08.961Z,21.00
2024-04-15T05:30:10.960Z,19.50
2024-04-15T05:31:15.158Z,20.75
2024-04-15T05:32:16.983Z,20.25
2024-04-15T05:33:18.642Z,20.50
2024-04-15T05:34:20.358Z,21.25
2024-04-15T05:35:27.203Z,20.75
2024-04-15T05:36:28.809Z,19.25
2024-04-15T05:37:30.363Z,18.50
2024-04-15T05:38:34.536Z,21.50
2024-04-15T05:39:36.175Z,19.00
2024-04-15T05:40:37.784Z,19.00
2024-04-15T05:41:39.347Z,18.25
2024-04-15T05:42:43.686Z,20.50
2024-04-15T05:43:45.342Z,21.25
2024-04-15T05:44:46.923Z,17.75
2024-04-15T05:45:48.567Z,20.25
2024-04-15T05:46:53.109Z,17.00
2024-04-15T05:47:54.756Z,15.50
2024-04-15T05:48:56.414Z,18.50
2024-04-15T05:49:58.080Z,15.25
2024-04-15T05:51:04.884Z,18.75
2024-04-15T05:52:06.884Z,16.00
2024-04-15T05:53:08.490Z,22.00
2024-04-15T05:54:12.664Z,16.00
2024-04-15T05:55:14.415Z,20.75
2024-04-15T05:56:16.214Z,16.50
2024-04-15T05:57:17.857Z,17.75
2024-04-15T05:58:22.070Z,17.75
2024-04-15T05:59:23.855Z,18.50
2024-04-15T06:00:25.425Z,16.75
2024-04-15T06:01:27.201Z,14.75
2024-04-15T06:02:31.581Z,16.00
2024-04-15T06:03:33.283Z,15.75
2024-04-15T06:04:36.671Z,18.75
2024-04-15T06:05:40.944Z,18.25
2024-04-15T06:06:45.235Z,18.00
2024-04-15T06:07:46.905Z,15.50
2024-04-15T06:08:51.216Z,16.00
2024-04-15T06:09:52.805Z,14.75
2024-04-15T06:10:54.430Z,13.00
2024-04-15T06:11:56.062Z,13.50
2024-04-15T06:13:00.310Z,14.00
2024-04-15T06:14:03.420Z,14.00
2024-04-15T06:15:05.398Z,14.75
2024-04-15T06:16:09.878Z,14.00
2024-04-15T06:17:11.589Z,15.25
2024-04-15T06:18:13.689Z,12.25
2024-04-15T06:19:18.348Z,12.25
2024-04-15T06:20:22.429Z,13.00
2024-04-15T06:21:24.407Z,14.75
2024-04-15T06:22:28.602Z,15.25
2024-04-15T06:23:32.878Z,10.75
2024-04-15T06:24:34.478Z,11.75
2024-04-15T06:25:36.035Z,12.00
2024-04-15T06:26:37.915Z,12.00
2024-04-15T06:27:42.099Z,10.00
2024-04-15T06:28:43.757Z,13.00
2024-04-15T06:29:45.384Z,11.50
2024-04-15T06:30:46.998Z,12.00
2024-04-15T06:31:51.392Z,11.50
2024-04-15T06:32:53.050Z,12.00
2024-04-15T06:33:54.792Z,10.00
2024-04-15T06:34:58.956Z,12.25
2024-04-15T06:36:00.543Z,11.50
2024-04-15T06:37:02.212Z,10.00
2024-04-15T06:38:10.832Z,9.25
2024-04-15T06:39:12.522Z,10.00
2024-04-15T06:40:14.178Z,10.00
2024-04-15T06:41:15.844Z,12.50
2024-04-15T06:42:19.994Z,9.25
2024-04-15T06:43:21.618Z,9.75
2024-04-15T06:44:23.350Z,9.25
2024-04-15T06:45:24.946Z,9.75
2024-04-15T06:46:30.428Z,10.25
2024-04-15T06:47:31.994Z,11.00
2024-04-15T06:48:33.546Z,8.50
2024-04-15T06:49:35.245Z,9.50
2024-04-15T06:50:40.568Z,8.00
2024-04-15T06:51:42.147Z,9.50
2024-04-15T06:52:43.713Z,8.00
2024-04-15T06:53:50.488Z,8.00
2024-04-15T06:54:52.140Z,10.00
2024-04-15T06:55:53.700Z,7.00
2024-04-15T06:56:57.845Z,9.25
2024-04-15T06:57:59.480Z,7.00
2024-04-15T06:59:01.078Z,8.75
2024-04-15T07:00:02.779Z,7.00
2024-04-15T07:01:07.273Z,7.00
2024-04-15T07:02:09.117Z,7.00
2024-04-15T07:03:10.804Z,6.00
2024-04-15T07:04:12.578Z,7.00
2024-04-15T07:05:18.669Z,8.50
2024-04-15T07:06:20.258Z,10.25
2024-04-15T07:07:22.503Z,8.00
2024-04-15T07:08:24.223Z,8.50
2024-04-15T07:09:31.054Z,9.25
2024-04-15T07:10:34.237Z,7.00
2024-04-15T07:11:35.886Z,9.00
2024-04-15T07:12:40.085Z,7.00
2024-04-15T07:13:41.787Z,6.75
2024-04-15T07:14:43.423Z,7.25
2024-04-15T07:15:45.183Z,7.00
2024-04-15T07:16:49.670Z,7.00
2024-04-15T07:17:51.348Z,7.00
2024-04-15T07:18:52.966Z,7.00
2024-04-15T07:19:54.546Z,7.00
2024-04-15T07:20:58.789Z,7.00
2024-04-15T07:22:00.378Z,6.25
2024-04-15T07:23:01.997Z,9.00
2024-04-15T07:24:03.860Z,7.00
2024-04-15T07:25:10.838Z,7.00
2024-04-15T07:26:12.673Z,7.00
2024-04-15T07:27:14.263Z,9.00
2024-04-15T07:28:18.597Z,8.75
2024-04-15T07:29:20.250Z,8.50
2024-04-15T07:30:21.879Z,7.25
2024-04-15T07:31:25.235Z,7.50
2024-04-15T07:32:29.600Z,8.75
2024-04-15T07:33:31.216Z,7.25
2024-04-15T07:34:32.904Z,6.25
2024-04-15T07:35:35.145Z,6.25
2024-04-15T07:36:39.361Z,7.00
2024-04-15T07:37:41.052Z,6.25
2024-04-15T07:38:42.587Z,5.50
2024-04-15T07:39:46.907Z,5.50
2024-04-15T07:40:53.738Z,6.25
2024-04-15T07:41:55.280Z,5.00
2024-04-15T07:42:56.987Z,4.50
2024-04-15T07:43:58.630Z,6.00
2024-04-15T07:45:02.779Z,6.00
2024-04-15T07:46:04.609Z,6.00
2024-04-15T07:47:06.348Z,5.25
2024-04-15T07:48:08.324Z,6.00
2024-04-15T07:49:12.671Z,6.00
2024-04-15T07:50:14.439Z,6.00
2024-04-15T07:51:18.710Z,6.00
2024-04-15T07:52:20.399Z,6.00
2024-04-15T07:53:24.641Z,6.00
2024-04-15T07:54:26.310Z,6.00
2024-04-15T07:55:27.924Z,5.00
2024-04-15T07:56:32.310Z,6.00
2024-04-15T07:57:36.560Z,4.00
2024-04-15T07:58:38.281Z,4.00
2024-04-15T07:59:39.848Z,3.50
2024-04-15T08:00:45.167Z,5.75
2024-04-15T08:01:47.233Z,5.00
2024-04-15T08:02:48.909Z,6.00
2024-04-15T08:03:53.261Z,4.25
2024-04-15T08:04:55.038Z,4.75
2024-04-15T08:05:56.642Z,4.50
2024-04-15T08:07:06.824Z,4.00
2024-04-15T08:08:17.131Z,4.00
2024-04-15T08:09:19.183Z,4.00
2024-04-15T08:10:21.452Z,4.00
2024-04-15T08:11:25.741Z,4.00
2024-04-15T08:12:30.238Z,5.00
2024-04-15T08:13:31.867Z,3.75
2024-04-15T08:14:33.449Z,4.00
2024-04-15T08:15:37.623Z,4.00
2024-04-15T08:16:39.250Z,3.75
2024-04-15T08:17:40.932Z,4.00
2024-04-15T08:18:45.273Z,3.25
2024-04-15T08:19:46.893Z,4.50
2024-04-15T08:20:53.965Z,3.25
2024-04-15T08:21:55.567Z,3.50
2024-04-15T08:22:59.766Z,2.75
2024-04-15T08:24:01.329Z,3.00
2024-04-15T08:25:09.511Z,4.00
2024-04-15T08:26:13.800Z,3.75
2024-04-15T08:27:15.489Z,3.00
2024-04-15T08:28:19.836Z,3.00
2024-04-15T08:29:21.522Z,3.00
2024-04-15T08:30:26.082Z,2.75
2024-04-15T08:31:27.706Z,4.00
2024-04-15T08:32:29.427Z,2.75
2024-04-15T08:33:33.849Z,2.75
2024-04-15T08:34:35.557Z,2.25
2024-04-15T08:35:37.191Z,2.50
2024-04-15T08:36:38.810Z,2.00
2024-04-15T08:37:43.019Z,1.00
2024-04-15T08:38:45.955Z,2.75
2024-04-15T08:39:47.664Z,2.75
2024-04-15T08:40:50.702Z,1.50
2024-04-15T08:42:04.096Z,1.50
2024-04-15T08:43:07.932Z,2.75
2024-04-15T08:44:12.155Z,1.00
2024-04-15T08:45:18.440Z,1.50
2024-04-15T08:46:22.827Z,1.25
2024-04-15T08:47:24.912Z,4.00
2024-04-15T08:48:29.246Z,2.00
2024-04-15T08:49:30.833Z,2.75
2024-04-15T08:50:32.468Z,1.00
2024-04-15T08:51:36.648Z,2.75
2024-04-15T08:52:38.532Z,2.00
2024-04-15T08:53:40.179Z,1.25
2024-04-15T08:54:44.410Z,2.00
2024-04-15T08:55:45.974Z,2.25
2024-04-15T08:56:47.531Z,2.00
2024-04-15T08:57:49.200Z,2.00
2024-04-15T08:58:54.158Z,2.00
2024-04-15T08:59:58.399Z,2.00
2024-04-15T09:01:00.160Z,1.50
2024-04-15T09:02:01.948Z,4.00
2024-04-15T09:03:06.544Z,1.00
2024-04-15T09:04:08.501Z,1.25
2024-04-15T09:05:12.503Z,1.00
2024-04-15T09:06:14.484Z,2.00
2024-04-15T09:07:18.801Z,1.00
2024-04-15T09:08:20.435Z,1.75
2024-04-15T09:09:22.470Z,2.00
2024-04-15T09:10:24.087Z,2.00
2024-04-15T09:11:28.340Z,1.00
2024-04-15T09:12:33.207Z,1.00
2024-04-15T09:13:34.793Z,1.00
2024-04-15T09:14:38.902Z,2.00
2024-04-15T09:15:46.074Z,1.00
2024-04-15T09:16:47.752Z,1.75
2024-04-15T09:17:51.273Z,1.75
2024-04-15T09:18:55.526Z,1.50
2024-04-15T09:19:57.532Z,1.00
2024-04-15T09:21:01.189Z,2.00
2024-04-15T09:22:04.682Z,1.00
2024-04-15T09:23:11.284Z,1.00
2024-04-15T09:24:12.895Z,1.00
2024-04-15T09:25:14.756Z,1.25
2024-04-15T09:26:16.399Z,1.00
2024-04-15T09:27:22.596Z,2.00
2024-04-15T09:28:24.857Z,1.75
2024-04-15T09:29:26.549Z,1.25
2024-04-15T09:30:30.841Z,1.50
2024-04-15T09:31:37.703Z,1.00
2024-04-15T09:32:39.317Z,1.25
2024-04-15T09:33:40.884Z,1.00
2024-04-15T09:34:45.040Z,1.00
2024-04-15T09:35:46.619Z,1.25
2024-04-15T09:36:48.280Z,1.00
2024-04-15T09:37:49.867Z,2.00
2024-04-15T09:38:54.431Z,1.00
2024-04-15T09:39:56.039Z,2.00
2024-04-15T09:40:57.654Z,1.00
2024-04-15T09:41:59.375Z,2.00
2024-04-15T09:43:04.015Z,1.00
2024-04-15T09:44:05.889Z,2.00
2024-04-15T09:45:07.802Z,2.00
2024-04-15T09:46:09.577Z,2.00
2024-04-15T09:47:16.542Z,1.00
2024-04-15T09:48:18.510Z,1.00
2024-04-15T09:49:20.266Z,1.75
2024-04-15T09:50:22.094Z,1.00
2024-04-15T09:51:27.533Z,2.00
2024-04-15T09:52:30.532Z,2.25
2024-04-15T09:53:35.954Z,1.00
2024-04-15T09:54:37.524Z,1.00
2024-04-15T09:55:44.928Z,1.75
2024-04-15T09:56:48.365Z,1.00
2024-04-15T09:57:49.979Z,1.00
2024-04-15T09:58:53.019Z,1.00
2024-04-15T09:59:58.804Z,1.00
2024-04-15T10:01:00.445Z,2.00
2024-04-15T10:02:02.524Z,1.00
2024-04-15T10:03:08.767Z,1.00
2024-04-15T10:04:19.703Z,1.00
2024-04-15T10:05:21.867Z,1.00
2024-04-15T10:06:24.904Z,2.50
2024-04-15T10:07:26.860Z,1.00
2024-04-15T10:08:31.079Z,1.00
2024-04-15T10:09:33.174Z,1.00
2024-04-15T10:10:34.844Z,1.00
2024-04-15T10:11:39.036Z,1.25
2024-04-15T10:12:40.628Z,1.00
2024-04-15T10:13:42.215Z,1.75
2024-04-15T10:14:43.834Z,1.00
2024-04-15T10:15:48.079Z,1.00
2024-04-15T10:16:49.893Z,0.75
2024-04-15T10:17:57.906Z,1.25
2024-04-15T10:19:02.179Z,1.00
2024-04-15T10:20:08.140Z,1.00
2024-04-15T10:21:12.465Z,1.75
2024-04-15T10:22:16.190Z,1.00
2024-04-15T10:23:18.188Z,2.75
2024-04-15T10:24:22.346Z,1.00
2024-04-15T10:25:23.933Z,1.00
2024-04-15T10:26:27.182Z,1.00
2024-04-15T10:27:28.738Z,1.00
2024-04-15T10:28:32.935Z,1.00
2024-04-15T10:29:34.521Z,1.00
2024-04-15T10:30:37.480Z,1.00
2024-04-15T10:31:40.388Z,1.00
2024-04-15T10:32:46.607Z,1.00
2024-04-15T10:33:48.661Z,1.00
2024-04-15T10:34:54.443Z,1.50
2024-04-15T10:35:58.595Z,1.00
2024-04-15T10:37:00.241Z,1.00
2024-04-15T10:38:02.352Z,2.00
2024-04-15T10:39:07.274Z,1.00
2024-04-15T10:40:09.119Z,2.00
2024-04-15T10:41:10.758Z,1.00
2024-04-15T10:42:13.377Z,1.00
2024-04-15T10:43:18.520Z,2.00
2024-04-15T10:44:20.209Z,1.50
2024-04-15T10:45:21.750Z,1.00
2024-04-15T10:46:23.338Z,1.00
2024-04-15T10:47:27.577Z,1.00
2024-04-15T10:48:29.290Z,1.00
2024-04-15T10:49:30.913Z,0.75
2024-04-15T10:50:35.193Z,1.00
2024-04-15T10:51:36.760Z,0.25
2024-04-15T10:52:41.049Z,1.50
2024-04-15T10:53:42.887Z,1.00
2024-04-15T10:54:44.477Z,2.00
2024-04-15T10:55:46.141Z,1.00
2024-04-15T10:56:50.543Z,0.50
2024-04-15T10:57:55.173Z,0.00
2024-04-15T10:58:56.993Z,1.00
2024-04-15T10:59:58.550Z,1.00
2024-04-15T11:01:02.807Z,1.00
2024-04-15T11:02:07.825Z,1.00
2024-04-15T11:03:09.570Z,0.00
2024-04-15T11:04:11.777Z,1.00
2024-04-15T11:05:16.329Z,1.00
2024-04-15T11:06:20.571Z,1.00
2024-04-15T11:07:22.270Z,0.00
2024-04-15T11:08:26.591Z,0.00
2024-04-15T11:09:28.316Z,2.00
2024-04-15T11:10:30.050Z,1.00
2024-04-15T11:11:33.616Z,0.25
2024-04-15T11:12:37.801Z,1.00
2024-04-15T11:13:40.041Z,0.00
2024-04-15T11:14:41.636Z,0.50
2024-04-15T11:15:46.094Z,1.00
2024-04-15T11:16:47.983Z,1.00
2024-04-15T11:17:50.135Z,0.00
2024-04-15T11:18:52.808Z,1.00
2024-04-15T11:20:01.687Z,1.00
2024-04-15T11:21:04.074Z,1.00
2024-04-15T11:22:09.304Z,0.00
2024-04-15T11:23:14.679Z,0.00
2024-04-15T11:24:17.453Z,0.00
2024-04-15T11:25:19.484Z,1.00
2024-04-15T11:26:23.750Z,1.00
2024-04-15T11:27:26.433Z,0.00
2024-04-15T11:28:28.436Z,1.00
2024-04-15T11:29:30.225Z,1.00
2024-04-15T11:30:35.632Z,0.00
2024-04-15T11:31:37.751Z,0.25
2024-04-15T11:32:39.525Z,0.00
2024-04-15T11:33:43.888Z,1.00
2024-04-15T11:34:45.636Z,1.00
2024-04-15T11:35:47.911Z,0.00
2024-04-15T11:36:49.498Z,0.00
2024-04-15T11:37:59.721Z,1.00
2024-04-15T11:39:01.809Z,1.00
2024-04-15T11:40:04.124Z,1.00
2024-04-15T11:41:05.793Z,1.00
2024-04-15T11:42:10.386Z,0.00
2024-04-15T11:43:12.217Z,0.00
2024-04-15T11:44:13.827Z,0.25
2024-04-15T11:45:15.697Z,0.75
2024-04-15T11:46:20.250Z,0.00
2024-04-15T11:47:21.971Z,0.00
2024-04-15T11:48:23.799Z,0.00
2024-04-15T11:49:28.424Z,1.00
2024-04-15T11:50:30.089Z,0.00
2024-04-15T11:51:31.690Z,1.00
2024-04-15T11:52:33.483Z,1.00
2024-04-15T11:53:40.693Z,1.00
2024-04-15T11:54:42.346Z,0.50
2024-04-15T11:55:44.051Z,1.00
2024-04-15T11:56:45.723Z,1.00
2024-04-15T11:57:50.054Z,0.50
2024-04-15T11:58:51.738Z,1.00
2024-04-15T11:59:53.711Z,1.00
2024-04-15T12:00:55.392Z,1.00
2024-04-15T12:01:59.615Z,0.50
2024-04-15T12:03:01.449Z,1.25
2024-04-15T12:04:03.124Z,0.00
2024-04-15T12:05:08.745Z,1.00
2024-04-15T12:06:11.245Z,1.00
2024-04-15T12:07:12.811Z,1.00
2024-04-15T12:08:14.389Z,1.00
2024-04-15T12:09:21.145Z,1.00
2024-04-15T12:10:22.841Z,1.00
2024-04-15T12:11:24.512Z,0.00
2024-04-15T12:12:28.677Z,0.00
2024-04-15T12:13:30.267Z,0.00
2024-04-15T12:14:31.812Z,1.00
2024-04-15T12:15:33.639Z,1.00
2024-04-15T12:16:38.132Z,1.00
2024-04-15T12:17:39.979Z,1.00
2024-04-15T12:18:41.727Z,1.00
2024-04-15T12:19:43.267Z,0.50
2024-04-15T12:20:47.438Z,1.25
2024-04-15T12:21:49.085Z,2.00
2024-04-15T12:22:50.697Z,1.00
2024-04-15T12:23:52.303Z,1.00
2024-04-15T12:25:07.140Z,0.75
2024-04-15T12:26:10.796Z,1.00
2024-04-15T12:27:12.362Z,0.25
2024-04-15T12:28:14.011Z,0.50
2024-04-15T12:29:18.219Z,1.00
2024-04-15T12:30:19.836Z,1.00
2024-04-15T12:31:21.476Z,1.00
2024-04-15T12:32:23.155Z,1.75
2024-04-15T12:33:27.389Z,0.25
2024-04-15T12:34:29.142Z,0.00
2024-04-15T12:35:31.412Z,0.75
2024-04-15T12:36:32.992Z,1.00
2024-04-15T12:37:37.217Z,1.00
2024-04-15T12:38:38.824Z,1.00
2024-04-15T12:39:41.527Z,0.75
2024-04-15T12:40:48.279Z,1.00
2024-04-15T12:41:49.864Z,0.00
2024-04-15T12:42:51.484Z,0.75
2024-04-15T12:43:53.078Z,1.00
2024-04-15T12:44:57.284Z,1.00
2024-04-15T12:45:58.908Z,1.00
2024-04-15T12:47:01.728Z,0.50
2024-04-15T12:48:03.863Z,1.00
2024-04-15T12:49:10.272Z,1.00
2024-04-15T12:50:11.899Z,0.25
2024-04-15T12:51:14.712Z,1.00
2024-04-15T12:52:16.462Z,0.00
2024-04-15T12:53:20.669Z,1.00
2024-04-15T12:54:22.281Z,0.25
2024-04-15T12:55:23.873Z,0.25
2024-04-15T12:56:28.125Z,0.50
2024-04-15T12:57:32.802Z,0.25
2024-04-15T12:58:34.451Z,0.00
2024-04-15T12:59:36.114Z,1.00
2024-04-15T13:00:40.284Z,1.00
2024-04-15T13:01:54.490Z,1.00
2024-04-15T13:03:02.663Z,0.00
2024-04-15T13:04:05.536Z,1.00
2024-04-15T13:05:10.786Z,0.25
2024-04-15T13:06:12.521Z,0.50
2024-04-15T13:07:14.448Z,0.50
2024-04-15T13:08:16.450Z,0.00
2024-04-15T13:09:20.683Z,0.00
2024-04-15T13:10:22.299Z,0.75
2024-04-15T13:11:23.930Z,1.00
2024-04-15T13:12:28.098Z,1.00
2024-04-15T13:13:32.424Z,0.75
2024-04-15T13:14:34.016Z,1.00
2024-04-15T13:15:35.603Z,1.00
2024-04-15T13:16:37.191Z,0.00
2024-04-15T13:17:41.477Z,1.00
2024-04-15T13:18:43.188Z,1.00
2024-04-15T13:19:45.141Z,0.00
2024-04-15T13:20:49.304Z,1.00
2024-04-15T13:21:50.900Z,1.00
2024-04-15T13:22:55.681Z,1.00
2024-04-15T13:23:57.370Z,1.00
2024-04-15T13:25:01.654Z,0.50
2024-04-15T13:26:03.581Z,2.00
2024-04-15T13:27:05.996Z,0.75
2024-04-15T13:28:13.323Z,1.00
2024-04-15T13:29:15.043Z,1.00
2024-04-15T13:30:16.735Z,1.00
2024-04-15T13:31:21.237Z,1.00
2024-04-15T13:32:23.020Z,1.00
2024-04-15T13:33:25.068Z,1.00
2024-04-15T13:34:27.107Z,1.00
2024-04-15T13:35:31.569Z,0.75
2024-04-15T13:36:33.537Z,1.00
2024-04-15T13:37:35.241Z,1.00
2024-04-15T13:38:36.826Z,1.00
2024-04-15T13:39:42.081Z,0.00
2024-04-15T13:40:43.928Z,1.00
2024-04-15T13:41:45.583Z,1.00
2024-04-15T13:42:47.617Z,1.00
2024-04-15T13:43:54.386Z,0.00
2024-04-15T13:44:57.184Z,1.00
2024-04-15T13:46:01.507Z,0.50
2024-04-15T13:47:04.643Z,1.00
2024-04-15T13:48:09.874Z,1.00
2024-04-15T13:49:11.491Z,1.00
2024-04-15T13:50:13.214Z,1.00
2024-04-15T13:51:17.378Z,0.00